Terminal Aerodrome Forecast
Issued by NWS Charleston, WV

Current Version | Previous Version | Graphics & Text | Print | Product List | Glossary On
Versions: 1 2 3 4 5 6 7 8 9 10 11 12 13 14 15 16 17 18 19 20 21 22 23 24 25 26
254
FTUS41 KRLX 041738
TAFEKN
TAF
KEKN 041738Z 0418/0518 00000KT P6SM OVC100
     FM050200 17006KT 5SM -RA BR OVC025
     FM050600 21006KT 3SM -RA BR SCT008 OVC020
     FM050800 23006KT 2SM -DZ BR OVC008
     FM051300 27006KT P6SM OVC008=

USA.gov is the U.S. government's official web portal to all federal, state and local government web resources and services.